< < Back
Terminal Aerodrome Forecast


Current Version              Previous Versions:   1  2  3  4  5  6  7  8  9  

Terminal Aerodrome Forecast

703
FTAK31 PAJN 301723
TAFAGS
TAF
PAGS 301723Z 3018/3118 34010KT P6SM -SHRA OVC080
     FM302100 34010G16KT P6SM VCSH OVC090
     FM310500 34005KT P6SM VCSH OVC080
      AMD LTD TO CLD VIS AND WIND=

Latest METAR

219
SAUS70 KWBC 302000 RRB
MTRAGS
METAR KAGS 301953Z 36006KT 10SM CLR 28/24 A3001 RMK AO2 SLP160
T02780239


USA.gov is the U.S. government's official web portal to all federal, state and local government web resources and services.